Time;durP1;ratioP1;P1;durP2;ratioP2;P2;SDS_P1;SDS_P2;PMS_P1;PMS_P2;Temp;Humidity;BMP_temperature;BMP_pressure;BME280_temperature;BME280_humidity;BME280_pressure;Samples;Min_cycle;Max_cycle;Signal;HPM_P1;HPM_P2
2022/03/01 00:00:03;;;;;;;14.73;7.15;;;6.10;53.90;;;;;;10006274;28;20026;-70
2022/03/01 00:04:54;;;;;;;10.43;6.20;;;6.00;53.90;;;;;;10007457;28;20022;-70
2022/03/01 00:09:45;;;;;;;14.90;7.65;;;6.00;54.30;;;;;;10010472;28;20037;-69
2022/03/01 00:14:35;;;;;;;10.80;6.28;;;6.00;54.50;;;;;;10006511;28;20255;-70
2022/03/01 00:19:29;;;;;;;12.32;6.80;;;5.90;54.50;;;;;;10012908;28;20037;-70
2022/03/01 00:24:20;;;;;;;13.82;6.90;;;5.90;54.70;;;;;;10011711;28;20636;-68
2022/03/01 00:29:11;;;;;;;16.17;6.97;;;5.80;54.80;;;;;;10010536;28;20042;-69
2022/03/01 00:34:02;;;;;;;14.00;7.53;;;5.80;55.10;;;;;;10008846;28;20019;-70
2022/03/01 00:38:53;;;;;;;11.88;6.47;;;5.80;55.20;;;;;;10015167;28;20558;-71
2022/03/01 00:43:43;;;;;;;12.75;6.15;;;5.90;55.50;;;;;;10015294;28;20105;-70
2022/03/01 00:48:34;;;;;;;11.93;5.97;;;5.70;56.00;;;;;;10013982;28;20120;-70
2022/03/01 00:53:25;;;;;;;17.83;7.93;;;5.70;56.30;;;;;;10016962;28;20041;-69
2022/03/01 00:58:15;;;;;;;18.73;6.82;;;5.70;56.30;;;;;;10010652;28;20289;-72
2022/03/01 01:03:06;;;;;;;16.25;6.70;;;5.50;56.60;;;;;;10004912;28;20516;-67
2022/03/01 01:07:57;;;;;;;11.55;6.55;;;5.40;57.30;;;;;;10012574;28;20434;-68
2022/03/01 01:12:48;;;;;;;12.40;6.85;;;5.30;57.20;;;;;;10010074;28;20050;-69
2022/03/01 01:17:39;;;;;;;14.55;6.45;;;5.40;57.50;;;;;;10003113;28;20525;-70
2022/03/01 01:22:41;;;;;;;14.38;6.22;;;5.30;58.10;;;;;;10012433;28;20030;-68
2022/03/01 01:27:32;;;;;;;12.05;6.93;;;5.20;58.10;;;;;;10009807;28;20048;-69
2022/03/01 01:32:23;;;;;;;12.00;5.10;;;5.10;58.30;;;;;;9999151;28;20045;-69
2022/03/01 01:37:13;;;;;;;11.38;5.65;;;5.10;59.20;;;;;;9994856;28;20035;-69
2022/03/01 01:42:04;;;;;;;14.43;6.18;;;4.90;59.00;;;;;;10013769;28;20505;-69
2022/03/01 01:46:56;;;;;;;12.88;6.15;;;4.80;59.60;;;;;;9987344;28;20022;-70
2022/03/01 01:51:46;;;;;;;13.90;6.65;;;4.90;59.00;;;;;;10006720;28;20152;-69
2022/03/01 01:56:37;;;;;;;10.25;5.57;;;4.80;59.00;;;;;;10009615;28;20572;-69
2022/03/01 02:01:27;;;;;;;13.13;5.72;;;4.70;59.20;;;;;;10026004;28;20366;-70
2022/03/01 02:06:18;;;;;;;11.77;6.10;;;4.70;59.30;;;;;;10009347;28;20400;-68
2022/03/01 02:11:09;;;;;;;11.23;5.35;;;4.70;59.70;;;;;;10001963;28;20157;-69
2022/03/01 02:16:00;;;;;;;11.95;5.32;;;4.70;60.10;;;;;;9971845;28;20027;-69
2022/03/01 02:20:50;;;;;;;9.30;5.30;;;4.50;60.70;;;;;;9969207;28;20116;-69
2022/03/01 02:25:41;;;;;;;15.73;6.88;;;4.50;60.70;;;;;;9971368;28;20390;-69
2022/03/01 02:30:33;;;;;;;10.68;5.35;;;4.50;60.00;;;;;;9965344;28;20031;-68
2022/03/01 02:35:24;;;;;;;9.98;5.20;;;4.40;60.90;;;;;;9942808;28;20030;-69
2022/03/01 02:40:15;;;;;;;9.18;4.65;;;4.30;60.90;;;;;;9970690;28;20022;-68
2022/03/01 02:45:09;;;;;;;10.02;4.85;;;4.20;61.50;;;;;;9970449;28;20339;-68
2022/03/01 02:50:00;;;;;;;9.85;4.85;;;4.10;61.10;;;;;;9967924;28;20038;-68
2022/03/01 02:54:50;;;;;;;10.07;4.53;;;4.00;62.30;;;;;;9966065;28;20033;-69
2022/03/01 02:59:41;;;;;;;12.27;5.30;;;4.00;62.10;;;;;;9954061;28;20121;-69
2022/03/01 03:04:32;;;;;;;13.50;5.57;;;4.10;62.10;;;;;;9963663;28;20063;-68
2022/03/01 03:09:23;;;;;;;9.13;4.60;;;4.00;61.70;;;;;;9966068;28;20129;-70
2022/03/01 03:14:14;;;;;;;10.20;5.30;;;4.10;61.60;;;;;;9994422;28;20062;-69
2022/03/01 03:19:04;;;;;;;10.43;4.80;;;4.00;61.70;;;;;;10000437;28;20014;-69
2022/03/01 03:23:55;;;;;;;11.20;5.03;;;4.10;62.50;;;;;;9996380;28;20488;-68
2022/03/01 03:28:45;;;;;;;11.27;4.70;;;4.00;62.00;;;;;;10004242;28;20070;-70
2022/03/01 03:33:36;;;;;;;11.82;5.60;;;3.90;61.70;;;;;;10007527;28;20056;-70
2022/03/01 03:38:27;;;;;;;8.80;5.05;;;3.80;62.60;;;;;;10017055;28;20037;-69
2022/03/01 03:43:18;;;;;;;11.30;4.75;;;3.80;62.70;;;;;;10005814;28;20508;-69
2022/03/01 03:48:09;;;;;;;11.38;4.80;;;3.90;62.30;;;;;;10000272;28;20037;-68
2022/03/01 03:53:00;;;;;;;9.93;4.78;;;3.80;62.80;;;;;;9996820;28;20490;-69
2022/03/01 03:57:51;;;;;;;8.20;4.13;;;3.90;63.00;;;;;;10012741;28;20269;-69
2022/03/01 04:02:43;;;;;;;8.63;4.13;;;3.80;63.30;;;;;;10010716;28;20054;-69
2022/03/01 04:07:33;;;;;;;7.55;3.97;;;3.90;64.00;;;;;;10011230;28;20113;-69
2022/03/01 04:12:24;;;;;;;12.20;3.88;;;3.70;63.60;;;;;;10009163;28;20050;-68
2022/03/01 04:17:15;;;;;;;7.40;4.22;;;3.60;64.20;;;;;;10008484;28;20025;-68
2022/03/01 04:22:06;;;;;;;10.25;4.43;;;3.40;64.80;;;;;;10010934;28;20128;-68
2022/03/01 04:26:57;;;;;;;7.38;3.75;;;3.40;64.80;;;;;;10011715;28;20522;-70
2022/03/01 04:31:47;;;;;;;10.32;5.07;;;3.40;65.10;;;;;;10013738;28;20039;-69
2022/03/01 04:36:38;;;;;;;13.15;4.85;;;3.30;65.20;;;;;;10013282;28;20441;-69
2022/03/01 04:41:29;;;;;;;8.93;4.53;;;3.40;64.70;;;;;;10013489;28;20041;-69
2022/03/01 04:46:19;;;;;;;9.48;4.45;;;3.30;65.40;;;;;;10015120;28;20113;-70
2022/03/01 04:51:10;;;;;;;10.27;5.15;;;3.30;65.50;;;;;;10012272;28;20084;-70
2022/03/01 04:56:01;;;;;;;8.18;3.78;;;3.30;65.70;;;;;;10004945;28;20030;-68
2022/03/01 05:00:54;;;;;;;7.15;4.28;;;3.20;66.10;;;;;;10013239;28;20117;-69
2022/03/01 05:05:45;;;;;;;7.45;3.63;;;3.10;66.30;;;;;;10012701;28;20018;-69
2022/03/01 05:10:36;;;;;;;7.57;4.43;;;3.00;66.80;;;;;;10008537;28;20034;-68
2022/03/01 05:15:28;;;;;;;8.23;3.78;;;3.00;66.80;;;;;;10011220;28;20108;-69
2022/03/01 05:20:19;;;;;;;11.23;4.53;;;2.90;67.10;;;;;;10009704;28;20519;-69
2022/03/01 05:25:13;;;;;;;10.70;3.72;;;2.90;66.70;;;;;;10003531;28;20025;-69
2022/03/01 05:30:06;;;;;;;9.82;4.70;;;2.60;67.20;;;;;;10009428;28;20132;-69
2022/03/01 05:34:57;;;;;;;7.88;3.83;;;2.50;67.20;;;;;;9996971;28;20026;-70
2022/03/01 05:39:47;;;;;;;6.05;3.13;;;2.50;67.80;;;;;;10012019;28;20044;-69
2022/03/01 05:44:38;;;;;;;6.68;3.70;;;2.50;68.50;;;;;;9995980;28;20034;-69
2022/03/01 05:49:28;;;;;;;8.82;4.20;;;2.30;67.80;;;;;;10009796;28;20121;-71
2022/03/01 05:54:19;;;;;;;10.25;4.07;;;2.30;68.60;;;;;;10007800;28;20578;-70
2022/03/01 05:59:10;;;;;;;6.53;2.88;;;2.40;68.40;;;;;;10010287;28;20029;-69
2022/03/01 06:04:01;;;;;;;7.38;3.78;;;2.50;69.30;;;;;;10008726;28;20295;-69
2022/03/01 06:08:51;;;;;;;5.60;2.70;;;2.30;68.10;;;;;;10001468;28;20501;-70
2022/03/01 06:13:43;;;;;;;6.82;3.25;;;2.30;68.00;;;;;;10006388;28;20096;-70
2022/03/01 06:18:34;;;;;;;7.13;3.20;;;2.30;68.30;;;;;;10005292;28;20049;-70
2022/03/01 06:23:24;;;;;;;8.70;3.67;;;2.60;68.20;;;;;;10009410;28;20030;-69
2022/03/01 06:28:15;;;;;;;8.88;3.13;;;2.30;68.20;;;;;;10007159;28;20030;-70
2022/03/01 06:33:06;;;;;;;9.35;3.47;;;2.30;68.30;;;;;;10007196;28;20307;-72
2022/03/01 06:37:57;;;;;;;8.00;3.28;;;2.20;68.70;;;;;;10010117;28;20022;-70
2022/03/01 06:42:48;;;;;;;9.60;3.85;;;2.10;69.20;;;;;;10010199;28;20140;-70
2022/03/01 06:47:39;;;;;;;9.40;3.08;;;2.20;68.90;;;;;;10006259;28;20029;-71
2022/03/01 06:52:32;;;;;;;5.75;3.00;;;2.20;69.20;;;;;;9997494;28;20038;-69
2022/03/01 06:57:23;;;;;;;9.60;3.97;;;2.20;69.50;;;;;;10007218;28;20022;-69
2022/03/01 07:02:13;;;;;;;10.18;4.03;;;2.20;69.30;;;;;;10010707;28;20033;-71
2022/03/01 07:07:05;;;;;;;8.13;3.20;;;2.20;69.80;;;;;;10007129;28;20076;-70
2022/03/01 07:11:56;;;;;;;7.65;3.30;;;2.20;69.30;;;;;;10003493;28;20068;-70
2022/03/01 07:16:46;;;;;;;7.07;3.55;;;2.10;70.30;;;;;;9996766;28;20075;-68
2022/03/01 07:21:37;;;;;;;8.88;3.85;;;2.10;70.20;;;;;;10003631;28;20034;-69
2022/03/01 07:26:28;;;;;;;9.90;3.75;;;2.10;70.20;;;;;;10007416;28;20575;-69
2022/03/01 07:31:19;;;;;;;8.93;3.95;;;2.10;70.70;;;;;;10008962;28;20049;-69
2022/03/01 07:36:09;;;;;;;8.00;3.15;;;2.20;69.80;;;;;;10014681;28;20030;-66
2022/03/01 07:41:00;;;;;;;5.30;2.92;;;2.20;70.40;;;;;;10012853;28;20080;-67
2022/03/01 07:45:51;;;;;;;6.15;3.55;;;2.20;70.70;;;;;;10014768;28;20029;-74
2022/03/01 07:50:42;;;;;;;6.88;3.75;;;2.30;70.50;;;;;;10012598;28;20856;-75
2022/03/01 07:55:34;;;;;;;8.18;4.10;;;2.40;70.20;;;;;;10028330;28;20078;-74
2022/03/01 08:00:24;;;;;;;8.73;3.65;;;2.50;69.70;;;;;;10015286;28;20080;-69
2022/03/01 08:05:15;;;;;;;6.72;3.45;;;2.60;70.30;;;;;;10011193;28;20080;-68
2022/03/01 08:10:07;;;;;;;7.72;3.75;;;2.60;69.90;;;;;;10010290;28;20515;-67
2022/03/01 08:14:57;;;;;;;7.63;3.50;;;2.60;70.40;;;;;;10008861;28;20045;-69
2022/03/01 08:19:49;;;;;;;6.93;3.78;;;2.60;70.50;;;;;;10013869;28;20038;-67
2022/03/01 08:24:40;;;;;;;8.80;3.75;;;2.70;70.10;;;;;;10008811;28;20448;-68
2022/03/01 08:29:31;;;;;;;8.52;4.97;;;2.90;70.00;;;;;;10012114;28;20060;-69
2022/03/01 08:34:22;;;;;;;9.18;4.15;;;2.90;69.60;;;;;;10007395;28;20045;-70
2022/03/01 08:39:13;;;;;;;9.75;4.55;;;3.00;70.10;;;;;;10014180;28;20029;-68
2022/03/01 08:44:04;;;;;;;9.80;4.60;;;3.20;69.60;;;;;;10012490;28;20428;-68
2022/03/01 08:48:58;;;;;;;7.10;4.05;;;3.40;69.80;;;;;;10010581;28;20044;-72
2022/03/01 08:53:49;;;;;;;11.55;4.38;;;3.50;69.40;;;;;;10009939;28;20596;-68
2022/03/01 08:58:40;;;;;;;7.95;4.43;;;3.60;69.10;;;;;;10011265;28;20753;-67
2022/03/01 09:03:31;;;;;;;10.20;4.80;;;3.70;69.20;;;;;;10009754;28;20034;-70
2022/03/01 09:08:22;;;;;;;8.57;4.20;;;3.80;69.00;;;;;;10010340;28;20034;-66
2022/03/01 09:13:13;;;;;;;8.98;4.35;;;3.70;69.50;;;;;;10012674;28;20156;-68
2022/03/01 09:18:08;;;;;;;11.68;4.65;;;3.90;69.30;;;;;;10009730;28;20496;-66
2022/03/01 09:22:59;;;;;;;10.90;4.93;;;4.10;69.10;;;;;;10008047;28;20087;-69
2022/03/01 09:27:50;;;;;;;12.93;4.82;;;4.40;68.70;;;;;;10010204;28;20503;-70
2022/03/01 09:32:44;;;;;;;10.00;5.78;;;4.60;68.40;;;;;;10011427;28;20044;-71
2022/03/01 09:37:35;;;;;;;13.45;5.82;;;4.80;68.10;;;;;;10009313;28;20025;-68
2022/03/01 09:42:27;;;;;;;11.25;5.40;;;4.90;68.30;;;;;;10011906;28;20416;-67
2022/03/01 09:47:18;;;;;;;11.25;4.68;;;5.00;68.10;;;;;;10001091;28;20038;-67
2022/03/01 09:52:09;;;;;;;10.60;5.88;;;5.30;67.70;;;;;;10006527;28;20400;-66
2022/03/01 09:57:00;;;;;;;11.77;5.07;;;5.50;67.60;;;;;;10002513;28;20483;-66
2022/03/01 10:01:52;;;;;;;11.32;6.20;;;5.50;67.60;;;;;;10011244;28;20442;-68
2022/03/01 10:06:49;;;;;;;9.63;4.65;;;5.60;67.40;;;;;;10009877;28;20018;-67
2022/03/01 10:11:40;;;;;;;10.10;6.03;;;5.70;67.10;;;;;;10005639;28;20061;-67
2022/03/01 10:16:39;;;;;;;9.93;5.97;;;5.60;67.20;;;;;;10009867;28;20025;-68
2022/03/01 10:21:30;;;;;;;12.82;6.63;;;5.80;66.90;;;;;;10007433;28;20084;-67
2022/03/01 10:26:22;;;;;;;10.23;4.85;;;5.70;66.60;;;;;;10001687;28;20076;-66
2022/03/01 10:31:13;;;;;;;11.35;4.95;;;5.50;66.70;;;;;;10010526;28;20052;-67
2022/03/01 10:36:04;;;;;;;12.10;4.80;;;5.50;66.50;;;;;;10002939;28;20030;-68
2022/03/01 10:41:00;;;;;;;11.00;4.63;;;5.50;66.40;;;;;;9993511;28;20041;-69
2022/03/01 10:45:51;;;;;;;;;;;5.60;66.00;;;;;;10009477;28;20014;-69
2022/03/01 10:50:42;;;;;;;13.35;4.72;;;5.70;65.40;;;;;;10008435;28;20023;-70
2022/03/01 10:55:34;;;;;;;10.73;5.43;;;5.90;65.60;;;;;;10008613;28;20037;-70
2022/03/01 11:00:25;;;;;;;10.73;4.72;;;5.90;65.20;;;;;;10010369;28;20038;-66
2022/03/01 11:05:16;;;;;;;11.73;5.70;;;6.10;65.40;;;;;;10004033;28;20559;-68
2022/03/01 11:10:07;;;;;;;6.95;4.60;;;6.30;64.90;;;;;;10000246;28;20125;-66
2022/03/01 11:15:14;;;;;;;8.77;5.28;;;6.40;64.00;;;;;;10004277;28;20042;-68
2022/03/01 11:20:11;;;;;;;10.38;5.32;;;6.70;64.30;;;;;;10015586;28;20030;-67
2022/03/01 11:25:02;;;;;;;8.43;4.50;;;6.90;63.80;;;;;;9993070;28;20037;-67
2022/03/01 11:30:06;;;;;;;7.60;4.53;;;7.10;63.90;;;;;;10007818;28;20500;-69
2022/03/01 11:35:02;;;;;;;14.98;5.55;;;7.10;62.30;;;;;;10000585;28;20026;-72
2022/03/01 11:40:04;;;;;;;8.35;5.40;;;7.20;63.40;;;;;;10002578;28;20049;-69
2022/03/01 11:44:55;;;;;;;8.80;5.45;;;7.60;63.10;;;;;;10004317;28;20056;-68
2022/03/01 11:49:46;;;;;;;9.27;5.38;;;7.80;62.60;;;;;;10005782;28;20042;-68
2022/03/01 11:54:38;;;;;;;12.73;5.68;;;7.60;61.50;;;;;;10009252;28;20030;-70
2022/03/01 11:59:28;;;;;;;12.02;6.50;;;7.40;61.40;;;;;;10007682;28;20378;-65
2022/03/01 12:04:26;;;;;;;11.82;6.32;;;7.80;61.50;;;;;;10008891;28;20045;-66
2022/03/01 12:09:18;;;;;;;11.50;5.85;;;8.10;60.90;;;;;;10006102;28;20069;-67
2022/03/01 12:14:17;;;;;;;11.32;4.97;;;8.00;60.60;;;;;;10015528;28;20041;-66
2022/03/01 12:19:13;;;;;;;10.65;5.07;;;8.00;60.30;;;;;;10012636;28;20422;-69
2022/03/01 12:24:05;;;;;;;8.48;5.03;;;8.30;59.30;;;;;;10012440;28;20106;-69
2022/03/01 12:29:00;;;;;;;7.85;4.78;;;8.40;58.40;;;;;;9991072;28;20066;-68
2022/03/01 12:33:54;;;;;;;9.80;4.65;;;8.50;57.60;;;;;;10014062;28;20037;-65
2022/03/01 12:39:06;;;;;;;9.68;4.32;;;8.70;57.50;;;;;;10013395;28;20026;-66
2022/03/01 12:43:59;;;;;;;11.65;4.90;;;8.90;55.80;;;;;;10012514;28;20129;-69
2022/03/01 12:48:51;;;;;;;7.18;4.03;;;9.20;56.20;;;;;;10009674;28;20058;-68
2022/03/01 12:53:55;;;;;;;8.95;5.30;;;9.30;55.60;;;;;;10012599;28;20030;-68
2022/03/01 12:58:46;;;;;;;11.43;5.10;;;9.40;55.10;;;;;;10009209;28;20113;-67
2022/03/01 13:03:37;;;;;;;10.52;5.35;;;9.50;55.10;;;;;;10012318;28;20117;-66
2022/03/01 13:08:37;;;;;;;10.32;6.05;;;9.60;56.00;;;;;;10013606;28;20076;-68
2022/03/01 13:13:28;;;;;;;10.77;5.82;;;10.00;55.70;;;;;;10003529;28;20452;-66
2022/03/01 13:18:26;;;;;;;11.60;4.85;;;10.50;55.40;;;;;;10006255;28;20162;-63
2022/03/01 13:23:19;;;;;;;7.55;4.85;;;10.90;54.40;;;;;;10006165;28;20030;-65
2022/03/01 13:28:10;;;;;;;7.78;5.10;;;10.80;53.20;;;;;;10007863;28;20049;-65
2022/03/01 13:33:08;;;;;;;9.25;4.70;;;11.30;54.20;;;;;;10006093;28;20523;-69
2022/03/01 13:38:08;;;;;;;9.20;6.32;;;11.90;56.10;;;;;;10010836;28;20022;-65
2022/03/01 13:43:22;;;;;;;13.07;6.55;;;12.60;56.90;;;;;;10004400;28;20580;-66
2022/03/01 13:48:16;;;;;;;9.85;6.40;;;12.90;56.00;;;;;;10002058;28;20030;-64
2022/03/01 13:53:10;;;;;;;8.63;5.72;;;13.30;56.60;;;;;;10008614;28;20044;-67
2022/03/01 13:58:00;;;;;;;9.45;5.85;;;13.80;55.90;;;;;;10006810;28;20026;-64
2022/03/01 14:02:59;;;;;;;8.50;5.57;;;14.50;54.80;;;;;;10005620;28;20033;-65
2022/03/01 14:08:07;;;;;;;10.48;6.00;;;14.70;52.20;;;;;;10007710;28;20021;-64
2022/03/01 14:13:14;;;;;;;11.00;6.43;;;15.00;50.70;;;;;;10004763;28;20049;-65
2022/03/01 14:18:06;;;;;;;9.80;6.57;;;15.60;48.80;;;;;;9997853;28;20042;-64
2022/03/01 14:22:57;;;;;;;9.65;6.20;;;15.70;48.20;;;;;;10009758;28;20038;-65
2022/03/01 14:27:48;;;;;;;8.27;5.70;;;16.90;46.70;;;;;;10008905;28;20065;-71
2022/03/01 14:32:39;;;;;;;9.30;6.53;;;17.60;44.40;;;;;;10004165;28;20135;-68
2022/03/01 14:37:29;;;;;;;9.50;6.20;;;18.20;42.00;;;;;;10006073;28;20401;-68
2022/03/01 14:42:20;;;;;;;11.40;6.07;;;19.80;40.50;;;;;;10007918;28;20454;-69
2022/03/01 14:47:11;;;;;;;7.85;5.78;;;21.40;38.30;;;;;;10006274;28;20289;-69
2022/03/01 14:52:02;;;;;;;8.38;5.78;;;21.70;36.00;;;;;;10006387;28;20421;-63
2022/03/01 14:56:52;;;;;;;8.75;5.78;;;22.60;35.00;;;;;;10007679;28;20053;-65
2022/03/01 15:01:43;;;;;;;7.78;5.38;;;23.50;33.20;;;;;;10007352;28;20044;-65
2022/03/01 15:06:34;;;;;;;8.20;5.75;;;23.80;32.40;;;;;;10006823;28;20022;-64
2022/03/01 15:11:24;;;;;;;9.65;5.85;;;21.00;32.70;;;;;;9996655;28;20046;-67
2022/03/01 15:16:15;;;;;;;9.60;6.40;;;19.30;33.40;;;;;;10004211;28;20351;-64
2022/03/01 15:21:06;;;;;;;9.13;5.82;;;21.40;31.90;;;;;;10006210;28;20392;-67
2022/03/01 15:25:56;;;;;;;10.25;5.63;;;22.40;30.90;;;;;;10006237;28;20030;-63
2022/03/01 15:30:47;;;;;;;8.77;5.90;;;22.90;30.20;;;;;;10001606;28;20072;-64
2022/03/01 15:35:38;;;;;;;9.30;5.50;;;22.90;30.70;;;;;;10001191;28;20033;-63
2022/03/01 15:40:30;;;;;;;10.07;6.28;;;21.90;29.70;;;;;;10010216;28;20045;-65
2022/03/01 15:45:20;;;;;;;10.60;6.00;;;19.20;32.30;;;;;;10004041;28;20030;-65
2022/03/01 15:50:13;;;;;;;8.90;5.32;;;18.20;32.60;;;;;;10015259;28;20042;-65
2022/03/01 15:55:06;;;;;;;18.70;6.80;;;17.20;33.20;;;;;;10010165;28;20026;-67
2022/03/01 15:59:57;;;;;;;9.80;5.03;;;15.40;34.30;;;;;;10029843;28;20083;-64
2022/03/01 16:04:48;;;;;;;6.68;4.60;;;14.00;35.40;;;;;;10012321;28;20041;-69
2022/03/01 16:09:39;;;;;;;7.90;4.82;;;12.70;36.10;;;;;;10011939;28;20512;-64
2022/03/01 16:14:33;;;;;;;7.93;4.32;;;12.20;36.10;;;;;;10022666;28;20231;-64
2022/03/01 16:19:24;;;;;;;10.50;4.67;;;11.60;36.60;;;;;;10023042;28;20030;-65
2022/03/01 16:24:15;;;;;;;10.40;5.05;;;11.20;36.70;;;;;;10007528;28;20038;-66
2022/03/01 16:29:06;;;;;;;7.65;4.03;;;11.00;36.80;;;;;;10020936;28;20022;-64
2022/03/01 16:33:57;;;;;;;8.00;4.70;;;10.90;36.70;;;;;;10017847;28;20072;-65
2022/03/01 16:38:52;;;;;;;8.90;4.78;;;10.70;36.70;;;;;;10022332;28;20030;-70
2022/03/01 16:43:43;;;;;;;7.43;4.00;;;10.70;36.60;;;;;;10022469;28;20492;-69
2022/03/01 16:48:33;;;;;;;11.73;4.90;;;10.60;36.70;;;;;;10026953;28;20041;-64
2022/03/01 16:53:25;;;;;;;7.78;3.88;;;10.40;36.60;;;;;;10021825;28;20380;-65
2022/03/01 16:58:16;;;;;;;8.02;4.70;;;10.20;36.80;;;;;;10021501;28;20038;-67
2022/03/01 17:03:09;;;;;;;8.82;3.97;;;10.10;36.90;;;;;;10001328;28;20033;-69
2022/03/01 17:08:00;;;;;;;8.45;4.40;;;10.00;37.10;;;;;;10025159;28;20109;-64
2022/03/01 17:12:51;;;;;;;6.55;3.75;;;9.90;37.40;;;;;;10020484;28;20045;-67
2022/03/01 17:17:42;;;;;;;8.20;4.53;;;9.80;38.20;;;;;;10004708;28;20026;-65
2022/03/01 17:22:32;;;;;;;6.10;4.00;;;9.70;38.50;;;;;;10020986;28;20030;-65
2022/03/01 17:27:23;;;;;;;9.75;3.63;;;9.50;38.40;;;;;;10011351;28;20096;-68
2022/03/01 17:32:14;;;;;;;8.00;3.50;;;9.50;37.70;;;;;;10005507;28;20125;-65
2022/03/01 17:37:07;;;;;;;7.38;3.85;;;9.40;37.90;;;;;;10010279;28;20033;-67
2022/03/01 17:41:57;;;;;;;6.70;3.72;;;9.30;38.70;;;;;;10007807;28;20569;-66
2022/03/01 17:46:49;;;;;;;7.40;3.72;;;9.30;38.10;;;;;;10010195;28;20120;-66
2022/03/01 17:52:02;;;;;;;9.43;4.15;;;9.10;38.40;;;;;;10002703;28;20084;-65
2022/03/01 17:56:53;;;;;;;8.18;3.60;;;9.10;38.50;;;;;;9999587;28;20753;-68
2022/03/01 18:01:44;;;;;;;8.65;4.32;;;9.00;38.40;;;;;;10011396;28;20026;-66
2022/03/01 18:06:35;;;;;;;7.28;5.60;;;9.00;38.60;;;;;;10011014;28;20041;-68
2022/03/01 18:11:26;;;;;;;12.07;5.22;;;8.90;38.60;;;;;;9999869;28;20149;-67
2022/03/01 18:16:16;;;;;;;10.23;4.50;;;8.90;38.70;;;;;;10013207;28;20030;-67
2022/03/01 18:21:07;;;;;;;9.15;4.30;;;8.90;38.80;;;;;;10006497;28;20030;-66
2022/03/01 18:25:58;;;;;;;7.95;4.28;;;8.80;39.10;;;;;;10006449;28;20029;-68
2022/03/01 18:30:49;;;;;;;9.25;4.38;;;8.80;39.10;;;;;;10006592;28;20061;-69
2022/03/01 18:35:39;;;;;;;7.05;3.55;;;8.70;39.00;;;;;;10010581;28;20065;-65
2022/03/01 18:40:30;;;;;;;8.65;4.25;;;8.60;39.20;;;;;;10010589;28;20037;-68
2022/03/01 18:45:21;;;;;;;6.88;4.40;;;8.60;39.30;;;;;;10006497;28;20520;-68
2022/03/01 18:50:15;;;;;;;10.82;4.70;;;8.50;39.60;;;;;;9996426;28;20504;-67
2022/03/01 18:55:07;;;;;;;8.32;4.07;;;8.40;39.60;;;;;;10009695;28;20022;-71
2022/03/01 18:59:57;;;;;;;9.57;4.97;;;8.50;39.80;;;;;;10010004;28;20030;-72
2022/03/01 19:04:48;;;;;;;12.23;5.13;;;8.40;39.80;;;;;;10005663;28;20049;-71
2022/03/01 19:09:40;;;;;;;10.73;5.40;;;8.30;40.00;;;;;;10008714;28;20040;-70
2022/03/01 19:14:31;;;;;;;12.75;6.15;;;8.20;40.20;;;;;;10024980;28;20077;-70
2022/03/01 19:19:23;;;;;;;12.00;5.40;;;8.20;40.30;;;;;;10000260;28;20481;-69
2022/03/01 19:24:14;;;;;;;10.48;5.22;;;8.10;40.50;;;;;;10033845;28;20048;-70
2022/03/01 19:29:05;;;;;;;12.75;5.40;;;8.10;41.00;;;;;;10005166;28;20041;-71
2022/03/01 19:33:57;;;;;;;6.75;4.22;;;8.00;40.90;;;;;;10027651;28;20037;-70
2022/03/01 19:38:48;;;;;;;12.07;5.40;;;7.80;41.30;;;;;;10010857;28;20026;-66
2022/03/01 19:43:39;;;;;;;12.65;6.15;;;7.80;41.50;;;;;;10035566;28;20081;-71
2022/03/01 19:48:30;;;;;;;11.27;5.25;;;7.70;41.40;;;;;;10024058;28;20028;-71
2022/03/01 19:53:21;;;;;;;12.57;5.97;;;7.60;42.00;;;;;;10028310;28;20528;-72
2022/03/01 19:58:12;;;;;;;10.50;5.10;;;7.60;41.90;;;;;;10014700;28;20116;-70
2022/03/01 20:03:04;;;;;;;8.52;4.25;;;7.50;42.30;;;;;;10012958;28;20034;-71
2022/03/01 20:07:55;;;;;;;9.73;4.43;;;7.50;42.10;;;;;;10020582;28;20121;-69
2022/03/01 20:12:47;;;;;;;10.60;5.10;;;7.50;42.20;;;;;;10019308;28;20104;-72
2022/03/01 20:17:39;;;;;;;9.65;5.30;;;7.50;42.40;;;;;;10017770;28;20109;-73
2022/03/01 20:22:29;;;;;;;9.82;4.80;;;7.50;42.50;;;;;;10013564;28;20514;-70
2022/03/01 20:27:20;;;;;;;12.13;4.88;;;7.40;42.50;;;;;;10013573;28;20026;-70
2022/03/01 20:32:14;;;;;;;6.55;4.43;;;7.30;42.60;;;;;;10023145;28;20034;-72
2022/03/01 20:37:05;;;;;;;7.72;3.92;;;7.20;43.10;;;;;;10006864;28;20025;-69
2022/03/01 20:41:56;;;;;;;10.65;5.35;;;7.20;43.20;;;;;;10017856;28;20040;-74
2022/03/01 20:46:47;;;;;;;13.20;5.70;;;7.20;43.30;;;;;;9994612;28;20117;-72
2022/03/01 20:51:42;;;;;;;12.45;4.35;;;7.20;43.30;;;;;;10008703;28;20127;-75
2022/03/01 20:56:34;;;;;;;9.95;4.60;;;7.10;43.30;;;;;;10022157;28;20312;-74
2022/03/01 21:01:25;;;;;;;9.65;5.20;;;7.20;43.30;;;;;;10024850;28;20037;-75
2022/03/01 21:06:20;;;;;;;14.45;5.82;;;7.10;43.60;;;;;;10020527;28;20032;-75
2022/03/01 21:11:12;;;;;;;11.88;5.80;;;7.30;44.10;;;;;;10026850;28;20858;-74
2022/03/01 21:16:06;;;;;;;18.50;8.57;;;7.00;44.00;;;;;;10018545;28;20056;-74
2022/03/01 21:20:57;;;;;;;18.00;6.63;;;7.00;43.90;;;;;;10026575;28;20028;-77
2022/03/01 21:25:48;;;;;;;10.93;5.35;;;7.00;43.90;;;;;;10020480;28;20025;-76
2022/03/01 21:30:39;;;;;;;12.20;5.55;;;6.90;44.00;;;;;;10023182;28;20095;-75
2022/03/01 21:35:35;;;;;;;13.43;5.70;;;6.90;44.10;;;;;;10022089;28;20014;-76
2022/03/01 21:40:26;;;;;;;8.85;4.85;;;6.80;44.10;;;;;;10021545;28;20092;-75
2022/03/01 21:45:16;;;;;;;9.50;5.20;;;6.80;44.10;;;;;;10021068;28;20443;-76
2022/03/01 21:50:09;;;;;;;8.77;5.45;;;6.70;44.30;;;;;;10002189;28;20070;-76
2022/03/01 21:54:59;;;;;;;8.68;5.10;;;6.60;44.40;;;;;;10011174;28;20459;-74
2022/03/01 21:59:51;;;;;;;11.70;5.75;;;6.60;44.50;;;;;;10006913;28;20025;-72
2022/03/01 22:04:42;;;;;;;11.52;5.40;;;6.60;44.50;;;;;;10014821;28;20105;-73
2022/03/01 22:09:33;;;;;;;12.02;5.68;;;6.50;44.80;;;;;;10012265;28;20144;-72
2022/03/01 22:14:23;;;;;;;12.77;5.65;;;6.40;44.70;;;;;;10006949;28;20424;-73
2022/03/01 22:19:14;;;;;;;11.63;5.78;;;6.30;45.10;;;;;;10001514;28;20033;-73
2022/03/01 22:24:05;;;;;;;12.43;5.95;;;6.30;45.20;;;;;;10005350;28;20229;-72
2022/03/01 22:28:58;;;;;;;7.88;4.63;;;6.30;45.20;;;;;;10020687;28;20032;-72
2022/03/01 22:33:48;;;;;;;11.65;6.68;;;6.30;45.60;;;;;;10005509;28;20370;-71
2022/03/01 22:38:39;;;;;;;13.63;5.80;;;6.30;45.70;;;;;;9997703;28;20022;-71
2022/03/01 22:43:30;;;;;;;14.02;7.65;;;6.30;45.70;;;;;;10003232;28;20312;-72
2022/03/01 22:48:22;;;;;;;11.18;6.00;;;6.20;46.00;;;;;;10009385;28;20108;-71
2022/03/01 22:53:12;;;;;;;14.13;7.38;;;6.20;46.10;;;;;;10011296;28;20480;-70
2022/03/01 22:58:05;;;;;;;18.35;6.97;;;6.10;46.10;;;;;;10001539;28;20183;-70
2022/03/01 23:03:15;;;;;;;14.48;6.45;;;5.80;46.30;;;;;;10021641;28;20129;-70
2022/03/01 23:08:10;;;;;;;13.60;7.57;;;5.80;46.80;;;;;;10003391;28;20113;-70
2022/03/01 23:13:01;;;;;;;13.00;6.18;;;5.80;46.70;;;;;;10010518;28;20053;-69
2022/03/01 23:17:52;;;;;;;16.13;7.78;;;5.70;46.90;;;;;;10010496;28;20022;-70
2022/03/01 23:22:43;;;;;;;14.05;6.63;;;5.70;46.90;;;;;;10012980;28;20034;-72
2022/03/01 23:27:34;;;;;;;13.57;5.80;;;5.50;47.20;;;;;;10006072;28;20511;-75
2022/03/01 23:32:25;;;;;;;10.45;6.05;;;6.40;47.80;;;;;;10004922;28;20049;-71
2022/03/01 23:37:16;;;;;;;12.75;6.03;;;5.60;47.50;;;;;;9996227;28;20030;-72
2022/03/01 23:42:08;;;;;;;13.20;5.70;;;5.70;47.60;;;;;;10006133;28;20497;-71
2022/03/01 23:47:00;;;;;;;11.85;6.22;;;5.70;47.90;;;;;;10004031;28;20468;-73
2022/03/01 23:51:52;;;;;;;15.48;6.20;;;5.60;47.70;;;;;;10004902;28;20052;-74
2022/03/01 23:56:42;;;;;;;8.98;6.22;;;5.60;48.00;;;;;;10006513;28;20022;-73
